Time;durP1;ratioP1;P1;durP2;ratioP2;P2;SDS_P1;SDS_P2;PMS_P1;PMS_P2;Temp;Humidity;BMP_temperature;BMP_pressure;BME280_temperature;BME280_humidity;BME280_pressure;Samples;Min_cycle;Max_cycle;Signal;HPM_P1;HPM_P2
2022/03/06 00:00:30;;;;;;;3.45;0.90;;;;;;;;;;5002060;28;20057;-63
2022/03/06 00:03:02;;;;;;;9.10;0.98;;;;;;;;;;5013596;28;20049;-63
2022/03/06 00:05:40;;;;;;;3.38;0.88;;;;;;;;;;5043801;28;20045;-63
2022/03/06 00:08:11;;;;;;;5.40;1.20;;;;;;;;;;4990414;28;20057;-63
2022/03/06 00:10:44;;;;;;;3.88;1.10;;;;;;;;;;4991015;28;20054;-63
2022/03/06 00:13:14;;;;;;;3.78;0.90;;;;;;;;;;4989479;28;20118;-64
2022/03/06 00:15:45;;;;;;;2.75;1.08;;;;;;;;;;4973836;28;20049;-63
2022/03/06 00:18:16;;;;;;;1.83;0.93;;;;;;;;;;4990699;28;20058;-63
2022/03/06 00:20:48;;;;;;;3.13;1.20;;;;;;;;;;4974764;28;20073;-63
2022/03/06 00:23:19;;;;;;;3.55;1.00;;;;;;;;;;4990274;28;20046;-63
2022/03/06 00:25:50;;;;;;;8.25;1.30;;;;;;;;;;4990706;28;20061;-63
2022/03/06 00:28:21;;;;;;;5.63;1.20;;;;;;;;;;4990656;28;20094;-63
2022/03/06 00:30:54;;;;;;;6.00;1.35;;;;;;;;;;4958914;28;20435;-65
2022/03/06 00:33:25;;;;;;;3.05;1.08;;;;;;;;;;4979956;28;20058;-64
2022/03/06 00:36:00;;;;;;;3.35;1.23;;;;;;;;;;4986508;28;20058;-64
2022/03/06 00:38:34;;;;;;;4.20;1.20;;;;;;;;;;4971048;28;20055;-64
2022/03/06 00:41:07;;;;;;;4.90;1.23;;;;;;;;;;4971085;28;20067;-64
2022/03/06 00:43:37;;;;;;;5.90;1.42;;;;;;;;;;4990103;28;20430;-64
2022/03/06 00:46:11;;;;;;;4.47;1.35;;;;;;;;;;5002806;28;20058;-64
2022/03/06 00:48:42;;;;;;;2.55;1.05;;;;;;;;;;4977477;28;20501;-64
2022/03/06 00:51:16;;;;;;;4.65;1.20;;;;;;;;;;4961489;28;20054;-64
2022/03/06 00:53:47;;;;;;;6.95;1.33;;;;;;;;;;4986388;28;20057;-64
2022/03/06 00:56:20;;;;;;;6.00;1.15;;;;;;;;;;4977600;28;20616;-64
2022/03/06 00:58:52;;;;;;;;;;;;;;;;;;5009394;28;20041;-65
2022/03/06 01:01:31;;;;;;;3.88;1.20;;;;;;;;;;4988392;28;19921;-64
2022/03/06 01:04:02;;;;;;;4.25;1.38;;;;;;;;;;5009506;28;20057;-64
2022/03/06 01:06:35;;;;;;;5.75;1.20;;;;;;;;;;4961445;28;20489;-64
2022/03/06 01:09:07;;;;;;;6.18;1.33;;;;;;;;;;5009155;28;20442;-63
2022/03/06 01:11:42;;;;;;;4.60;1.27;;;;;;;;;;4950935;28;20047;-63
2022/03/06 01:14:12;;;;;;;6.68;1.60;;;;;;;;;;4937043;28;20067;-63
2022/03/06 01:16:43;;;;;;;4.72;1.23;;;;;;;;;;4900428;29;20099;-64
2022/03/06 01:19:15;;;;;;;4.38;1.35;;;;;;;;;;4890457;29;20461;-64
2022/03/06 01:21:50;;;;;;;5.07;1.48;;;;;;;;;;4888545;29;20060;-64
2022/03/06 01:24:23;;;;;;;3.30;1.75;;;;;;;;;;4894046;29;20061;-63
2022/03/06 01:26:54;;;;;;;2.35;1.30;;;;;;;;;;4917372;29;20047;-64
2022/03/06 01:29:25;;;;;;;4.20;1.33;;;;;;;;;;4941816;28;20562;-64
2022/03/06 01:31:59;;;;;;;7.30;1.90;;;;;;;;;;4969714;28;20054;-64
2022/03/06 01:34:29;;;;;;;3.67;1.70;;;;;;;;;;4970141;28;20546;-63
2022/03/06 01:37:00;;;;;;;5.28;1.50;;;;;;;;;;4937876;28;20054;-63
2022/03/06 01:39:33;;;;;;;3.72;1.55;;;;;;;;;;4946275;28;20047;-64
2022/03/06 01:42:06;;;;;;;6.07;1.52;;;;;;;;;;4931556;29;20064;-64
2022/03/06 01:44:37;;;;;;;4.40;1.80;;;;;;;;;;4900129;29;20055;-62
2022/03/06 01:47:07;;;;;;;6.07;2.28;;;;;;;;;;4931721;29;20048;-62
2022/03/06 01:49:38;;;;;;;4.95;2.08;;;;;;;;;;4962716;28;20531;-62
2022/03/06 01:52:11;;;;;;;8.45;3.08;;;;;;;;;;4921937;29;20047;-62
2022/03/06 01:54:41;;;;;;;7.25;2.38;;;;;;;;;;4862548;29;20052;-62
2022/03/06 01:57:12;;;;;;;6.13;1.70;;;;;;;;;;4893483;29;20405;-65
2022/03/06 01:59:43;;;;;;;6.43;1.88;;;;;;;;;;4893654;29;20072;-64
2022/03/06 02:02:16;;;;;;;8.95;2.50;;;;;;;;;;4893431;29;20065;-65
2022/03/06 02:04:46;;;;;;;10.88;4.03;;;;;;;;;;4882720;29;20072;-65
2022/03/06 02:07:16;;;;;;;11.98;4.40;;;;;;;;;;4874741;29;20174;-62
2022/03/06 02:09:48;;;;;;;14.30;4.53;;;;;;;;;;4885783;29;20073;-62
2022/03/06 02:12:26;;;;;;;13.75;4.22;;;;;;;;;;4893370;29;20057;-65
2022/03/06 02:14:59;;;;;;;10.25;3.67;;;;;;;;;;4893031;29;20061;-64
2022/03/06 02:17:30;;;;;;;8.90;3.17;;;;;;;;;;4921365;29;20440;-62
2022/03/06 02:20:22;;;;;;;6.53;2.10;;;;;;;;;;4914934;29;20048;-65
2022/03/06 02:22:58;;;;;;;6.45;1.80;;;;;;;;;;4948697;29;20419;-62
2022/03/06 02:25:34;;;;;;;3.88;1.63;;;;;;;;;;4911882;29;20535;-65
2022/03/06 02:28:10;;;;;;;3.83;1.48;;;;;;;;;;4925695;29;20059;-65
2022/03/06 02:30:42;;;;;;;5.20;2.17;;;;;;;;;;4899361;29;20060;-62
2022/03/06 02:33:14;;;;;;;4.95;1.85;;;;;;;;;;4947212;29;20059;-65
2022/03/06 02:35:44;;;;;;;8.20;1.90;;;;;;;;;;4951018;28;20051;-63
2022/03/06 02:38:15;;;;;;;5.03;2.00;;;;;;;;;;4964029;28;20561;-62
2022/03/06 02:40:46;;;;;;;6.03;2.10;;;;;;;;;;4925473;28;20051;-63
2022/03/06 02:43:17;;;;;;;6.38;2.47;;;;;;;;;;4909807;28;20135;-63
2022/03/06 02:45:48;;;;;;;6.45;2.80;;;;;;;;;;4925707;28;20058;-63
2022/03/06 02:48:22;;;;;;;10.98;3.10;;;;;;;;;;4973272;28;20038;-63
2022/03/06 02:50:53;;;;;;;4.70;2.10;;;;;;;;;;4902555;29;20062;-64
2022/03/06 02:53:25;;;;;;;5.22;2.40;;;;;;;;;;4919962;29;20043;-64
2022/03/06 02:55:59;;;;;;;8.73;1.98;;;;;;;;;;4934596;29;20059;-64
2022/03/06 02:58:30;;;;;;;8.13;2.15;;;;;;;;;;4905842;29;20052;-63
2022/03/06 03:01:03;;;;;;;6.85;1.90;;;;;;;;;;4930582;29;20051;-64
2022/03/06 03:03:44;;;;;;;5.65;2.17;;;;;;;;;;4915548;29;20060;-63
2022/03/06 03:06:14;;;;;;;8.90;2.28;;;;;;;;;;4944881;28;20458;-64
2022/03/06 03:08:48;;;;;;;5.75;2.30;;;;;;;;;;4972902;28;20039;-64
2022/03/06 03:11:20;;;;;;;5.20;2.42;;;;;;;;;;4972559;28;20478;-63
2022/03/06 03:13:54;;;;;;;7.75;2.45;;;;;;;;;;4972530;28;20066;-63
2022/03/06 03:16:25;;;;;;;9.32;2.63;;;;;;;;;;4970845;28;20085;-63
2022/03/06 03:18:55;;;;;;;13.90;2.72;;;;;;;;;;4972602;28;20059;-64
2022/03/06 03:21:26;;;;;;;5.05;2.00;;;;;;;;;;4977135;28;20541;-63
2022/03/06 03:24:00;;;;;;;7.82;2.70;;;;;;;;;;4991906;28;20066;-63
2022/03/06 03:26:30;;;;;;;8.90;2.08;;;;;;;;;;4992548;28;20423;-64
2022/03/06 03:29:03;;;;;;;11.60;2.90;;;;;;;;;;4991963;28;20061;-63
2022/03/06 03:31:34;;;;;;;10.27;2.22;;;;;;;;;;5005776;28;20499;-63
2022/03/06 03:34:05;;;;;;;10.73;2.25;;;;;;;;;;5011059;28;20083;-63
2022/03/06 03:36:39;;;;;;;12.70;2.40;;;;;;;;;;5002265;28;20060;-63
2022/03/06 03:39:10;;;;;;;7.18;2.63;;;;;;;;;;5045048;28;20045;-63
2022/03/06 03:41:42;;;;;;;11.98;2.60;;;;;;;;;;5034796;28;20428;-63
2022/03/06 03:44:12;;;;;;;12.20;2.00;;;;;;;;;;5001269;28;20061;-63
2022/03/06 03:46:43;;;;;;;8.52;2.70;;;;;;;;;;5023211;28;20053;-63
2022/03/06 03:49:15;;;;;;;9.68;2.70;;;;;;;;;;4997694;28;20057;-63
2022/03/06 03:51:48;;;;;;;6.03;3.10;;;;;;;;;;5030915;28;20049;-63
2022/03/06 03:54:27;;;;;;;6.25;2.50;;;;;;;;;;5015261;28;20429;-63
2022/03/06 03:56:57;;;;;;;6.53;2.47;;;;;;;;;;4981231;28;20046;-63
2022/03/06 03:59:28;;;;;;;4.65;2.05;;;;;;;;;;4991853;28;20058;-64
2022/03/06 04:01:59;;;;;;;5.18;2.10;;;;;;;;;;4991240;28;20426;-64
2022/03/06 04:04:31;;;;;;;6.75;2.30;;;;;;;;;;4971861;28;20081;-64
2022/03/06 04:07:01;;;;;;;10.20;2.42;;;;;;;;;;4909581;29;20048;-63
2022/03/06 04:09:31;;;;;;;6.97;2.05;;;;;;;;;;4914416;29;20500;-64
2022/03/06 04:12:02;;;;;;;11.60;2.35;;;;;;;;;;4898172;29;20056;-63
2022/03/06 04:14:38;;;;;;;11.38;2.95;;;;;;;;;;4914251;29;20437;-63
2022/03/06 04:17:08;;;;;;;14.75;2.22;;;;;;;;;;4872456;29;20074;-63
2022/03/06 04:19:38;;;;;;;8.02;2.53;;;;;;;;;;4933383;29;20060;-63
2022/03/06 04:22:08;;;;;;;11.40;2.58;;;;;;;;;;4933033;29;20059;-63
2022/03/06 04:24:41;;;;;;;11.80;2.10;;;;;;;;;;4942081;28;20065;-63
2022/03/06 04:27:13;;;;;;;6.05;2.00;;;;;;;;;;4970367;28;20058;-63
2022/03/06 04:29:43;;;;;;;10.60;2.47;;;;;;;;;;4971461;28;20061;-63
2022/03/06 04:32:14;;;;;;;8.05;2.17;;;;;;;;;;4971119;28;20058;-63
2022/03/06 04:34:46;;;;;;;12.30;2.30;;;;;;;;;;4992788;28;20054;-64
2022/03/06 04:37:20;;;;;;;6.78;2.72;;;;;;;;;;4994002;28;20057;-64
2022/03/06 04:39:51;;;;;;;8.23;2.53;;;;;;;;;;4994546;28;20053;-63
2022/03/06 04:42:22;;;;;;;6.43;2.30;;;;;;;;;;4990074;28;20497;-63
2022/03/06 04:44:52;;;;;;;8.05;2.30;;;;;;;;;;5001909;28;20057;-63
2022/03/06 04:47:24;;;;;;;6.88;2.20;;;;;;;;;;5009981;28;20054;-63
2022/03/06 04:49:54;;;;;;;9.45;2.47;;;;;;;;;;5013017;28;20549;-63
2022/03/06 04:52:26;;;;;;;7.60;2.15;;;;;;;;;;4980618;28;20056;-64
2022/03/06 04:54:57;;;;;;;10.82;2.20;;;;;;;;;;5029725;28;20414;-64
2022/03/06 04:57:28;;;;;;;6.60;2.28;;;;;;;;;;4996803;28;20065;-64
2022/03/06 04:59:58;;;;;;;10.35;2.60;;;;;;;;;;5028212;28;20192;-63
2022/03/06 05:02:28;;;;;;;7.68;2.40;;;;;;;;;;5029290;28;20060;-64
2022/03/06 05:05:02;;;;;;;5.70;2.28;;;;;;;;;;4964791;28;20513;-63
2022/03/06 05:07:34;;;;;;;9.63;2.65;;;;;;;;;;5049142;28;20068;-64
2022/03/06 05:10:09;;;;;;;8.23;2.55;;;;;;;;;;4981601;28;20061;-63
2022/03/06 05:12:41;;;;;;;7.20;2.00;;;;;;;;;;5009262;28;20614;-63
2022/03/06 05:15:14;;;;;;;4.35;2.03;;;;;;;;;;4989591;28;20543;-63
2022/03/06 05:17:47;;;;;;;4.97;2.22;;;;;;;;;;4989754;28;20054;-63
2022/03/06 05:20:17;;;;;;;6.38;2.28;;;;;;;;;;5002982;28;20076;-63
2022/03/06 05:22:47;;;;;;;6.43;2.20;;;;;;;;;;5009322;28;20497;-63
2022/03/06 05:25:18;;;;;;;9.90;2.50;;;;;;;;;;5009479;28;20065;-63
2022/03/06 05:27:49;;;;;;;8.05;1.80;;;;;;;;;;4976711;28;20684;-63
2022/03/06 05:30:19;;;;;;;4.88;1.90;;;;;;;;;;5008689;28;20042;-63
2022/03/06 05:32:52;;;;;;;8.05;1.90;;;;;;;;;;5008740;28;20065;-64
2022/03/06 05:35:24;;;;;;;7.63;2.03;;;;;;;;;;4950646;29;20496;-63
2022/03/06 05:37:55;;;;;;;8.65;2.22;;;;;;;;;;4950757;29;20066;-63
2022/03/06 05:40:30;;;;;;;7.32;2.30;;;;;;;;;;4929154;29;20047;-63
2022/03/06 05:43:02;;;;;;;5.65;2.50;;;;;;;;;;4950589;29;20539;-63
2022/03/06 05:45:32;;;;;;;8.45;2.42;;;;;;;;;;4934876;28;20065;-64
2022/03/06 05:48:04;;;;;;;8.70;2.22;;;;;;;;;;4957245;28;20054;-64
2022/03/06 05:50:35;;;;;;;9.38;2.28;;;;;;;;;;4956946;28;20055;-64
2022/03/06 05:53:05;;;;;;;8.02;2.15;;;;;;;;;;5012993;28;20054;-64
2022/03/06 05:55:36;;;;;;;9.55;2.10;;;;;;;;;;4996177;28;20054;-64
2022/03/06 05:58:09;;;;;;;4.78;1.75;;;;;;;;;;5028551;28;20072;-64
2022/03/06 06:00:39;;;;;;;7.10;2.00;;;;;;;;;;5023420;28;20058;-64
2022/03/06 06:03:10;;;;;;;9.88;2.30;;;;;;;;;;4976559;28;20058;-64
2022/03/06 06:05:43;;;;;;;4.03;1.90;;;;;;;;;;4992498;28;20426;-64
2022/03/06 06:08:14;;;;;;;6.30;2.13;;;;;;;;;;5009409;28;20054;-64
2022/03/06 06:10:45;;;;;;;7.57;2.05;;;;;;;;;;5007826;28;20046;-64
2022/03/06 06:13:19;;;;;;;7.88;2.22;;;;;;;;;;5034841;28;20066;-64
2022/03/06 06:15:55;;;;;;;9.00;2.20;;;;;;;;;;5032532;28;20053;-63
2022/03/06 06:18:30;;;;;;;6.63;2.20;;;;;;;;;;5050894;28;20485;-64
2022/03/06 06:21:00;;;;;;;11.48;2.45;;;;;;;;;;5050572;28;20037;-63
2022/03/06 06:23:30;;;;;;;6.78;2.75;;;;;;;;;;5050565;28;20056;-63
2022/03/06 06:26:09;;;;;;;12.35;2.08;;;;;;;;;;5032776;28;20061;-63
2022/03/06 06:28:44;;;;;;;6.53;2.05;;;;;;;;;;5050566;28;20040;-63
2022/03/06 06:31:14;;;;;;;;;;;;;;;;;;5051029;28;20436;-63
2022/03/06 06:33:44;;;;;;;6.65;1.80;;;;;;;;;;5042537;28;19927;-63
2022/03/06 06:36:19;;;;;;;8.95;1.88;;;;;;;;;;5070677;28;20052;-63
2022/03/06 06:38:54;;;;;;;7.70;2.05;;;;;;;;;;5073727;28;20044;-63
2022/03/06 06:41:25;;;;;;;7.65;2.33;;;;;;;;;;5090765;28;20051;-63
2022/03/06 06:43:56;;;;;;;5.10;2.10;;;;;;;;;;5072033;28;20060;-63
2022/03/06 06:46:28;;;;;;;7.15;2.25;;;;;;;;;;5072402;28;20056;-63
2022/03/06 06:49:00;;;;;;;7.93;2.30;;;;;;;;;;5087656;28;20044;-64
2022/03/06 06:51:31;;;;;;;7.80;2.40;;;;;;;;;;5089659;28;20052;-63
2022/03/06 06:54:02;;;;;;;7.25;2.10;;;;;;;;;;5090352;28;20036;-63
2022/03/06 06:56:33;;;;;;;7.55;2.00;;;;;;;;;;5067699;28;20088;-63
2022/03/06 06:59:03;;;;;;;11.65;2.22;;;;;;;;;;5018208;28;20532;-63
2022/03/06 07:01:37;;;;;;;7.85;2.50;;;;;;;;;;5019275;28;20061;-63
2022/03/06 07:04:08;;;;;;;6.40;2.40;;;;;;;;;;5047758;28;20060;-63
2022/03/06 07:06:39;;;;;;;6.28;1.77;;;;;;;;;;5047961;28;20088;-63
2022/03/06 07:09:10;;;;;;;7.93;2.20;;;;;;;;;;4998235;28;20513;-63
2022/03/06 07:11:44;;;;;;;7.47;2.58;;;;;;;;;;5031915;28;20532;-63
2022/03/06 07:14:14;;;;;;;4.88;2.00;;;;;;;;;;4987945;28;20061;-63
2022/03/06 07:16:46;;;;;;;8.18;2.13;;;;;;;;;;4973036;28;20410;-63
2022/03/06 07:19:17;;;;;;;5.93;1.83;;;;;;;;;;4939948;28;20081;-63
2022/03/06 07:21:49;;;;;;;5.50;1.80;;;;;;;;;;4957845;28;20062;-63
2022/03/06 07:24:19;;;;;;;10.52;2.30;;;;;;;;;;4992015;28;20061;-63
2022/03/06 07:26:53;;;;;;;4.35;1.77;;;;;;;;;;4991997;28;20085;-63
2022/03/06 07:29:25;;;;;;;8.75;1.90;;;;;;;;;;4959621;28;20065;-63
2022/03/06 07:31:56;;;;;;;9.35;2.17;;;;;;;;;;4995052;28;20062;-63
2022/03/06 07:34:26;;;;;;;5.57;2.05;;;;;;;;;;4995547;28;20060;-63
2022/03/06 07:36:56;;;;;;;10.10;2.28;;;;;;;;;;5011373;28;20141;-63
2022/03/06 07:39:28;;;;;;;5.93;2.30;;;;;;;;;;5011238;28;20065;-63
2022/03/06 07:42:02;;;;;;;5.97;2.13;;;;;;;;;;5010793;28;20417;-63
2022/03/06 07:44:35;;;;;;;7.50;2.25;;;;;;;;;;4971804;28;20059;-64
2022/03/06 07:47:06;;;;;;;12.20;2.50;;;;;;;;;;4972208;28;20062;-63
2022/03/06 07:49:36;;;;;;;6.15;2.20;;;;;;;;;;4971854;28;20063;-63
2022/03/06 07:52:10;;;;;;;10.95;2.33;;;;;;;;;;4995430;28;20050;-63
2022/03/06 07:54:43;;;;;;;5.75;1.63;;;;;;;;;;4994330;28;20405;-63
2022/03/06 07:57:13;;;;;;;8.05;1.90;;;;;;;;;;4946500;28;20058;-63
2022/03/06 07:59:43;;;;;;;6.47;2.33;;;;;;;;;;5029351;28;20064;-63
2022/03/06 08:02:16;;;;;;;5.82;2.08;;;;;;;;;;5014100;28;20064;-63
2022/03/06 08:04:51;;;;;;;6.65;2.25;;;;;;;;;;5030253;28;20049;-64
2022/03/06 08:07:21;;;;;;;7.80;2.20;;;;;;;;;;4997690;28;20053;-63
2022/03/06 08:09:51;;;;;;;5.30;2.10;;;;;;;;;;5029992;28;20064;-63
2022/03/06 08:12:27;;;;;;;5.80;2.08;;;;;;;;;;5042896;28;20429;-63
2022/03/06 08:15:02;;;;;;;6.07;1.95;;;;;;;;;;5049738;28;20049;-63
2022/03/06 08:17:35;;;;;;;7.97;2.10;;;;;;;;;;5049993;28;20053;-63
2022/03/06 08:20:09;;;;;;;12.73;1.92;;;;;;;;;;5030277;28;20057;-64
2022/03/06 08:22:40;;;;;;;7.47;1.92;;;;;;;;;;5010512;28;20076;-64
2022/03/06 08:25:15;;;;;;;12.80;2.15;;;;;;;;;;5050094;28;20725;-64
2022/03/06 08:27:45;;;;;;;6.35;1.90;;;;;;;;;;5003001;28;20057;-64
2022/03/06 08:30:16;;;;;;;8.43;2.00;;;;;;;;;;5053692;28;20067;-64
2022/03/06 08:32:47;;;;;;;5.85;2.28;;;;;;;;;;5052800;28;20056;-64
2022/03/06 08:35:19;;;;;;;6.13;1.80;;;;;;;;;;5068664;28;20089;-64
2022/03/06 08:37:49;;;;;;;;;;;;;;;;;;5070595;28;20539;-64
2022/03/06 08:40:19;;;;;;;5.07;2.10;;;;;;;;;;5069975;28;19927;-64
2022/03/06 08:42:51;;;;;;;4.93;1.48;;;;;;;;;;5095749;28;20056;-64
2022/03/06 08:45:27;;;;;;;6.22;2.00;;;;;;;;;;5075722;28;20055;-64
2022/03/06 08:47:57;;;;;;;7.63;1.92;;;;;;;;;;5003856;28;20061;-64
2022/03/06 08:50:27;;;;;;;8.05;1.80;;;;;;;;;;5069643;28;20060;-64
2022/03/06 08:53:04;;;;;;;8.13;2.13;;;;;;;;;;5003815;28;20061;-64
2022/03/06 08:55:37;;;;;;;12.50;3.05;;;;;;;;;;4977015;28;20046;-64
2022/03/06 08:58:07;;;;;;;3.90;1.95;;;;;;;;;;4970787;28;20589;-64
2022/03/06 09:00:38;;;;;;;6.57;2.30;;;;;;;;;;4970965;28;20055;-64
2022/03/06 09:03:09;;;;;;;5.53;1.77;;;;;;;;;;4970660;28;20459;-64
2022/03/06 09:05:42;;;;;;;;;;;;;;;;;;4971828;28;20069;-64
2022/03/06 09:08:13;;;;;;;12.43;2.15;;;;;;;;;;4970873;28;19922;-64
2022/03/06 09:10:44;;;;;;;6.30;2.08;;;;;;;;;;4954287;28;20499;-64
2022/03/06 09:13:16;;;;;;;7.95;1.90;;;;;;;;;;4970531;28;20136;-64
2022/03/06 09:15:50;;;;;;;6.68;2.00;;;;;;;;;;4969513;28;20049;-64
2022/03/06 09:18:21;;;;;;;4.60;2.05;;;;;;;;;;4970158;28;20059;-64
2022/03/06 09:20:51;;;;;;;6.22;2.03;;;;;;;;;;4970369;28;20400;-64
2022/03/06 09:23:22;;;;;;;5.63;2.08;;;;;;;;;;4970213;28;20061;-64
2022/03/06 09:25:55;;;;;;;7.03;1.90;;;;;;;;;;4994665;28;20054;-64
2022/03/06 09:28:25;;;;;;;8.82;2.03;;;;;;;;;;4993162;28;20065;-64
2022/03/06 09:30:59;;;;;;;7.47;2.50;;;;;;;;;;4961945;28;20054;-64
2022/03/06 09:33:32;;;;;;;4.65;2.30;;;;;;;;;;5016220;28;20055;-64
2022/03/06 09:36:04;;;;;;;7.93;2.22;;;;;;;;;;5051989;28;20060;-64
2022/03/06 09:38:35;;;;;;;6.38;2.15;;;;;;;;;;5052495;28;20060;-64
2022/03/06 09:41:06;;;;;;;9.25;2.33;;;;;;;;;;5068541;28;20178;-64
2022/03/06 09:43:40;;;;;;;6.30;2.33;;;;;;;;;;5068670;28;20052;-64
2022/03/06 09:46:13;;;;;;;8.02;2.13;;;;;;;;;;4983516;28;20076;-64
2022/03/06 09:48:44;;;;;;;11.27;2.10;;;;;;;;;;5015563;28;20053;-64
2022/03/06 09:51:16;;;;;;;6.75;2.13;;;;;;;;;;5032518;28;20053;-64
2022/03/06 09:53:48;;;;;;;6.35;2.05;;;;;;;;;;5048301;28;20155;-64
2022/03/06 09:56:22;;;;;;;6.43;2.42;;;;;;;;;;5027786;28;20508;-64
2022/03/06 09:58:52;;;;;;;7.43;2.25;;;;;;;;;;5081813;28;20052;-64
2022/03/06 10:01:23;;;;;;;8.80;2.22;;;;;;;;;;5042920;28;20049;-64
2022/03/06 10:03:53;;;;;;;9.82;2.38;;;;;;;;;;5068142;28;20041;-64
2022/03/06 10:06:29;;;;;;;5.05;2.20;;;;;;;;;;5038991;28;20052;-64
2022/03/06 10:09:07;;;;;;;6.05;2.10;;;;;;;;;;5088657;28;20047;-64
2022/03/06 10:11:39;;;;;;;6.85;1.88;;;;;;;;;;5048228;28;20057;-64
2022/03/06 10:14:11;;;;;;;5.47;1.85;;;;;;;;;;5048217;28;20747;-64
2022/03/06 10:16:42;;;;;;;;;;;;;;;;;;5045945;28;20053;-64
2022/03/06 10:19:12;;;;;;;9.45;2.33;;;;;;;;;;5028148;28;19944;-64
2022/03/06 10:21:42;;;;;;;3.78;1.65;;;;;;;;;;4979676;28;20132;-64
2022/03/06 10:24:15;;;;;;;5.75;1.80;;;;;;;;;;5028175;28;20053;-64
2022/03/06 10:26:48;;;;;;;6.28;1.40;;;;;;;;;;5023919;28;21059;-64
2022/03/06 10:29:19;;;;;;;;;;;;;;;;;;5011767;28;20050;-64
2022/03/06 10:31:58;;;;;;;6.28;1.98;;;;;;;;;;5028037;28;19921;-64
2022/03/06 10:34:41;;;;;;;9.30;1.85;;;;;;;;;;4973209;28;20047;-64
2022/03/06 10:37:14;;;;;;;8.68;1.85;;;;;;;;;;4988203;28;20957;-64
2022/03/06 10:39:50;;;;;;;6.75;2.72;;;;;;;;;;4956552;28;20426;-64
2022/03/06 10:42:22;;;;;;;6.18;2.00;;;;;;;;;;4968771;28;20051;-64
2022/03/06 10:44:53;;;;;;;4.68;1.80;;;;;;;;;;5008045;28;20112;-64
2022/03/06 10:47:23;;;;;;;5.07;2.60;;;;;;;;;;5007902;28;20054;-63
2022/03/06 10:50:09;;;;;;;6.35;2.45;;;;;;;;;;4949414;29;20047;-64
2022/03/06 10:52:41;;;;;;;9.18;2.67;;;;;;;;;;4934848;29;20056;-64
2022/03/06 10:55:18;;;;;;;5.45;2.22;;;;;;;;;;4949514;29;20527;-64
2022/03/06 10:57:57;;;;;;;5.40;2.65;;;;;;;;;;4934121;28;20062;-64
2022/03/06 11:00:33;;;;;;;6.25;2.85;;;;;;;;;;4975881;28;20061;-64
2022/03/06 11:03:07;;;;;;;7.35;2.60;;;;;;;;;;4976422;28;20082;-64
2022/03/06 11:05:42;;;;;;;8.18;2.80;;;;;;;;;;4953849;28;20059;-64
2022/03/06 11:08:14;;;;;;;5.88;2.17;;;;;;;;;;4972466;28;20059;-64
2022/03/06 11:10:48;;;;;;;9.05;2.40;;;;;;;;;;4957246;28;20059;-64
2022/03/06 11:13:21;;;;;;;7.43;2.72;;;;;;;;;;4991730;28;20494;-64
2022/03/06 11:15:58;;;;;;;5.38;2.28;;;;;;;;;;4991924;28;20076;-64
2022/03/06 11:18:34;;;;;;;7.35;2.40;;;;;;;;;;4991588;28;20046;-64
2022/03/06 11:21:10;;;;;;;9.32;2.85;;;;;;;;;;4957961;28;20549;-64
2022/03/06 11:23:49;;;;;;;6.45;2.10;;;;;;;;;;4991903;28;20062;-64
2022/03/06 11:26:25;;;;;;;5.47;2.20;;;;;;;;;;4976102;28;20070;-64
2022/03/06 11:29:32;;;;;;;4.57;1.98;;;;;;;;;;5042423;28;20112;-64
2022/03/06 11:32:10;;;;;;;3.33;1.83;;;;;;;;;;5003791;28;20057;-64
2022/03/06 11:34:43;;;;;;;7.00;1.70;;;;;;;;;;5051435;28;20064;-64
2022/03/06 11:37:24;;;;;;;4.78;1.75;;;;;;;;;;5035421;28;20053;-65
2022/03/06 11:39:54;;;;;;;6.85;1.92;;;;;;;;;;5082278;28;20415;-65
2022/03/06 11:42:49;;;;;;;6.40;2.05;;;;;;;;;;5073599;28;20041;-65
2022/03/06 11:45:59;;;;;;;6.05;1.90;;;;;;;;;;5054572;28;20449;-65
2022/03/06 11:48:34;;;;;;;4.43;2.25;;;;;;;;;;4923511;28;20070;-65
2022/03/06 11:51:17;;;;;;;4.90;1.73;;;;;;;;;;4963544;28;20054;-65
2022/03/06 11:53:51;;;;;;;5.57;2.03;;;;;;;;;;4939944;28;20047;-65
2022/03/06 11:56:33;;;;;;;5.75;1.83;;;;;;;;;;4971879;28;20053;-64
2022/03/06 11:59:18;;;;;;;10.75;1.60;;;;;;;;;;4950685;29;20047;-66
2022/03/06 12:02:10;;;;;;;4.35;1.00;;;;;;;;;;4920835;29;20063;-66
2022/03/06 12:04:49;;;;;;;6.32;1.70;;;;;;;;;;4921597;29;20055;-66
2022/03/06 12:07:26;;;;;;;3.25;1.20;;;;;;;;;;4952579;29;20558;-64
2022/03/06 12:09:57;;;;;;;4.57;2.00;;;;;;;;;;4904882;29;20063;-65
2022/03/06 12:12:27;;;;;;;4.25;1.15;;;;;;;;;;4846227;29;20056;-65
2022/03/06 12:15:00;;;;;;;;;;;;;;;;;;4896066;29;20064;-65
2022/03/06 12:17:33;;;;;;;6.03;1.48;;;;;;;;;;4864048;29;19924;-65
2022/03/06 12:20:08;;;;;;;7.40;2.03;;;;;;;;;;4900944;29;20543;-64
2022/03/06 12:22:49;;;;;;;2.90;1.63;;;;;;;;;;4867113;29;20052;-65
2022/03/06 12:25:33;;;;;;;4.50;1.63;;;;;;;;;;4867514;29;20060;-65
2022/03/06 12:28:10;;;;;;;2.45;1.15;;;;;;;;;;4895331;29;20472;-65
2022/03/06 12:30:42;;;;;;;4.43;2.30;;;;;;;;;;4894481;29;20061;-65
2022/03/06 12:33:38;;;;;;;2.95;1.67;;;;;;;;;;4869314;29;20075;-65
2022/03/06 12:36:16;;;;;;;3.90;2.17;;;;;;;;;;4871801;29;20064;-65
2022/03/06 12:38:58;;;;;;;3.22;2.05;;;;;;;;;;4913745;29;20056;-65
2022/03/06 12:41:29;;;;;;;4.47;1.38;;;;;;;;;;4882065;29;20064;-64
2022/03/06 12:44:06;;;;;;;4.18;1.02;;;;;;;;;;4913622;29;20071;-65
2022/03/06 12:46:37;;;;;;;1.33;0.80;;;;;;;;;;4920260;28;20064;-64
2022/03/06 12:49:09;;;;;;;1.63;0.65;;;;;;;;;;4971072;28;20047;-65
2022/03/06 12:51:42;;;;;;;8.27;0.80;;;;;;;;;;4967182;28;20533;-64
2022/03/06 12:54:22;;;;;;;1.92;0.85;;;;;;;;;;4951578;29;20055;-64
2022/03/06 12:56:58;;;;;;;1.70;0.70;;;;;;;;;;4936652;29;20160;-64
2022/03/06 12:59:29;;;;;;;1.83;0.80;;;;;;;;;;4951746;29;20667;-64
2022/03/06 13:02:00;;;;;;;2.95;0.70;;;;;;;;;;4962525;28;20050;-64
2022/03/06 13:04:31;;;;;;;2.10;0.73;;;;;;;;;;4951279;29;20051;-65
2022/03/06 13:07:04;;;;;;;2.22;0.55;;;;;;;;;;4951689;29;20062;-64
2022/03/06 13:09:36;;;;;;;1.70;0.60;;;;;;;;;;4903955;29;20066;-64
2022/03/06 13:12:08;;;;;;;2.00;0.65;;;;;;;;;;4960728;28;20148;-64
2022/03/06 13:14:40;;;;;;;1.33;0.65;;;;;;;;;;5045424;28;20049;-64
2022/03/06 13:17:16;;;;;;;2.55;0.82;;;;;;;;;;4996756;28;20050;-64
2022/03/06 13:19:55;;;;;;;2.80;0.60;;;;;;;;;;4989259;28;20108;-66
2022/03/06 13:22:27;;;;;;;2.78;0.60;;;;;;;;;;4997266;28;20054;-65
2022/03/06 13:24:59;;;;;;;2.40;0.82;;;;;;;;;;5009058;28;20065;-64
2022/03/06 13:27:37;;;;;;;3.08;0.70;;;;;;;;;;5009451;28;20061;-64
2022/03/06 13:30:11;;;;;;;2.35;0.60;;;;;;;;;;5009119;28;20064;-64
2022/03/06 13:32:56;;;;;;;3.15;0.73;;;;;;;;;;4988462;28;20112;-64
2022/03/06 13:35:30;;;;;;;1.52;0.93;;;;;;;;;;5009087;28;20054;-65
2022/03/06 13:38:05;;;;;;;1.52;0.63;;;;;;;;;;5008974;28;20521;-63
2022/03/06 13:40:44;;;;;;;1.20;0.60;;;;;;;;;;4977441;28;20045;-64
2022/03/06 13:43:30;;;;;;;2.75;0.60;;;;;;;;;;4983260;28;20056;-64
2022/03/06 13:46:01;;;;;;;1.00;0.70;;;;;;;;;;5048661;28;20055;-64
2022/03/06 13:48:34;;;;;;;2.05;0.73;;;;;;;;;;4976728;28;20061;-63
2022/03/06 13:51:21;;;;;;;1.02;0.68;;;;;;;;;;5008628;28;20080;-64
2022/03/06 13:53:58;;;;;;;1.67;0.60;;;;;;;;;;5008631;28;20129;-65
2022/03/06 13:56:35;;;;;;;1.02;0.70;;;;;;;;;;4992926;28;20058;-64
2022/03/06 13:59:12;;;;;;;0.90;0.50;;;;;;;;;;5008917;28;20050;-65
2022/03/06 14:01:44;;;;;;;2.90;0.80;;;;;;;;;;4974351;28;20058;-62
2022/03/06 14:04:15;;;;;;;2.15;0.60;;;;;;;;;;5008977;28;20058;-64
2022/03/06 14:06:45;;;;;;;1.02;0.63;;;;;;;;;;4960207;28;20077;-64
2022/03/06 14:09:23;;;;;;;1.60;0.82;;;;;;;;;;4993132;28;20104;-64
2022/03/06 14:12:13;;;;;;;1.70;0.50;;;;;;;;;;5008566;28;20041;-62
2022/03/06 14:14:47;;;;;;;2.15;0.77;;;;;;;;;;4965492;28;20718;-64
2022/03/06 14:17:19;;;;;;;2.03;0.73;;;;;;;;;;5009362;28;20046;-63
2022/03/06 14:20:01;;;;;;;2.38;0.73;;;;;;;;;;4990475;28;20069;-64
2022/03/06 14:22:32;;;;;;;1.73;0.75;;;;;;;;;;4990594;28;20061;-64
2022/03/06 14:25:03;;;;;;;2.10;0.82;;;;;;;;;;5010832;28;20056;-63
2022/03/06 14:27:34;;;;;;;2.40;0.90;;;;;;;;;;5017396;28;20053;-64
2022/03/06 14:30:07;;;;;;;3.05;0.70;;;;;;;;;;5048213;28;20604;-64
2022/03/06 14:32:38;;;;;;;1.40;0.50;;;;;;;;;;4961489;28;20058;-63
2022/03/06 14:35:09;;;;;;;0.88;0.50;;;;;;;;;;4996755;28;20592;-64
2022/03/06 14:37:39;;;;;;;1.52;0.52;;;;;;;;;;5012189;28;20057;-64
2022/03/06 14:40:11;;;;;;;3.78;0.60;;;;;;;;;;5047648;28;20060;-64
2022/03/06 14:42:42;;;;;;;5.00;0.65;;;;;;;;;;5003641;28;20076;-63
2022/03/06 14:45:21;;;;;;;3.88;0.65;;;;;;;;;;5051972;28;20057;-63
2022/03/06 14:47:54;;;;;;;2.65;0.70;;;;;;;;;;5052134;28;20053;-64
2022/03/06 14:50:27;;;;;;;1.00;0.68;;;;;;;;;;5002060;28;20064;-63
2022/03/06 14:53:01;;;;;;;0.65;0.40;;;;;;;;;;5032090;28;20049;-64
2022/03/06 14:55:32;;;;;;;0.90;0.52;;;;;;;;;;5031854;28;20058;-63
2022/03/06 14:58:22;;;;;;;;;;;;;;;;;;5032108;28;20076;-64
2022/03/06 15:00:55;;;;;;;1.38;0.60;;;;;;;;;;5033086;28;20305;-65
2022/03/06 15:03:26;;;;;;;2.90;0.60;;;;;;;;;;5031616;28;20069;-63
2022/03/06 15:05:59;;;;;;;5.22;0.52;;;;;;;;;;4992235;28;20054;-63
2022/03/06 15:08:48;;;;;;;2.22;0.68;;;;;;;;;;4946553;28;20533;-63
2022/03/06 15:11:23;;;;;;;1.90;0.60;;;;;;;;;;5002922;28;20057;-63
2022/03/06 15:13:57;;;;;;;1.40;0.60;;;;;;;;;;4947895;28;20045;-63
2022/03/06 15:16:28;;;;;;;2.05;0.60;;;;;;;;;;4991764;28;20088;-64
2022/03/06 15:18:59;;;;;;;1.50;0.75;;;;;;;;;;4991912;28;20050;-64